Terminal Aerodrome Forecast
Issued by NWS

Home | Current Version | Previous Version | Text Only | Print | Product List | Glossary On
Versions: 1 2 3 4 5 6 7 8 9 10 11 12 13 14 15 16 17 18 19 20 21 22 23 24 25
000
FTUS42 KCAE 112320
TAFOGB
TAF
KOGB 112320Z 1200/1224 22004KT P6SM SKC
     FM120500 23006KT P6SM SCT250 WS018/27040KT
     FM121400 26011G20KT P6SM SCT250
     FM121700 28015G25KT P6SM SCT040=

USA.gov is the U.S. government's official web portal to all federal, state and local government web resources and services.